sensor_id;sensor_type;location;lat;lon;timestamp;P1;durP1;ratioP1;P2;durP2;ratioP2
62927;SDS011;51070;52.236;-0.892;2022-10-20T00:00:21;13.30;;;5.10;;
62927;SDS011;51070;52.236;-0.892;2022-10-20T00:02:47;16.60;;;6.50;;
62927;SDS011;51070;52.236;-0.892;2022-10-20T00:05:13;15.30;;;5.00;;
62927;SDS011;51070;52.236;-0.892;2022-10-20T00:07:38;15.20;;;5.70;;
62927;SDS011;51070;52.236;-0.892;2022-10-20T00:10:04;16.20;;;6.00;;
62927;SDS011;51070;52.236;-0.892;2022-10-20T00:12:30;11.70;;;5.60;;
62927;SDS011;51070;52.236;-0.892;2022-10-20T00:14:55;22.80;;;6.30;;
62927;SDS011;51070;52.236;-0.892;2022-10-20T00:17:21;17.80;;;5.80;;
62927;SDS011;51070;52.236;-0.892;2022-10-20T00:19:46;16.80;;;6.20;;
62927;SDS011;51070;52.236;-0.892;2022-10-20T00:22:13;15.90;;;6.30;;
62927;SDS011;51070;52.236;-0.892;2022-10-20T00:24:38;17.00;;;5.90;;
62927;SDS011;51070;52.236;-0.892;2022-10-20T00:27:03;14.80;;;6.50;;
62927;SDS011;51070;52.236;-0.892;2022-10-20T00:29:29;13.10;;;6.50;;
62927;SDS011;51070;52.236;-0.892;2022-10-20T00:31:55;12.00;;;5.90;;
62927;SDS011;51070;52.236;-0.892;2022-10-20T00:34:20;17.30;;;5.90;;
62927;SDS011;51070;52.236;-0.892;2022-10-20T00:36:46;14.90;;;5.40;;
62927;SDS011;51070;52.236;-0.892;2022-10-20T00:39:11;13.40;;;5.60;;
62927;SDS011;51070;52.236;-0.892;2022-10-20T00:41:36;9.10;;;6.00;;
62927;SDS011;51070;52.236;-0.892;2022-10-20T00:44:49;15.40;;;5.70;;
62927;SDS011;51070;52.236;-0.892;2022-10-20T00:47:13;14.40;;;5.80;;
62927;SDS011;51070;52.236;-0.892;2022-10-20T00:49:43;14.00;;;5.30;;
62927;SDS011;51070;52.236;-0.892;2022-10-20T00:52:09;18.80;;;6.40;;
62927;SDS011;51070;52.236;-0.892;2022-10-20T00:54:35;13.60;;;5.80;;
62927;SDS011;51070;52.236;-0.892;2022-10-20T00:57:00;12.80;;;6.00;;
62927;SDS011;51070;52.236;-0.892;2022-10-20T00:59:27;14.70;;;6.30;;
62927;SDS011;51070;52.236;-0.892;2022-10-20T01:01:56;10.60;;;5.50;;
62927;SDS011;51070;52.236;-0.892;2022-10-20T01:04:23;13.50;;;6.90;;
62927;SDS011;51070;52.236;-0.892;2022-10-20T01:06:51;15.90;;;6.10;;
62927;SDS011;51070;52.236;-0.892;2022-10-20T01:09:17;9.70;;;5.40;;
62927;SDS011;51070;52.236;-0.892;2022-10-20T01:11:53;15.80;;;5.90;;
62927;SDS011;51070;52.236;-0.892;2022-10-20T01:17:23;15.20;;;6.80;;
62927;SDS011;51070;52.236;-0.892;2022-10-20T01:25:26;15.80;;;7.00;;
62927;SDS011;51070;52.236;-0.892;2022-10-20T01:31:15;21.60;;;7.10;;
62927;SDS011;51070;52.236;-0.892;2022-10-20T01:37:01;20.60;;;8.30;;
62927;SDS011;51070;52.236;-0.892;2022-10-20T01:42:15;25.10;;;7.90;;
62927;SDS011;51070;52.236;-0.892;2022-10-20T01:44:45;26.80;;;8.30;;
62927;SDS011;51070;52.236;-0.892;2022-10-20T01:47:13;14.30;;;6.00;;
62927;SDS011;51070;52.236;-0.892;2022-10-20T01:49:41;19.70;;;8.00;;
62927;SDS011;51070;52.236;-0.892;2022-10-20T01:52:09;18.00;;;7.20;;
62927;SDS011;51070;52.236;-0.892;2022-10-20T01:54:36;19.90;;;7.20;;
62927;SDS011;51070;52.236;-0.892;2022-10-20T02:00:11;16.40;;;6.60;;
62927;SDS011;51070;52.236;-0.892;2022-10-20T02:02:51;17.30;;;7.20;;
62927;SDS011;51070;52.236;-0.892;2022-10-20T02:07:46;18.50;;;8.40;;
62927;SDS011;51070;52.236;-0.892;2022-10-20T02:12:40;20.00;;;8.70;;
62927;SDS011;51070;52.236;-0.892;2022-10-20T02:15:09;15.30;;;7.80;;
62927;SDS011;51070;52.236;-0.892;2022-10-20T02:17:43;15.10;;;7.90;;
62927;SDS011;51070;52.236;-0.892;2022-10-20T02:20:14;17.40;;;8.30;;
62927;SDS011;51070;52.236;-0.892;2022-10-20T02:22:40;15.40;;;8.20;;
62927;SDS011;51070;52.236;-0.892;2022-10-20T02:25:09;18.20;;;8.20;;
62927;SDS011;51070;52.236;-0.892;2022-10-20T02:27:36;19.80;;;8.60;;
62927;SDS011;51070;52.236;-0.892;2022-10-20T02:30:05;14.90;;;7.60;;
62927;SDS011;51070;52.236;-0.892;2022-10-20T02:32:35;21.30;;;8.30;;
62927;SDS011;51070;52.236;-0.892;2022-10-20T02:37:29;20.80;;;7.50;;
62927;SDS011;51070;52.236;-0.892;2022-10-20T02:39:55;19.50;;;10.10;;
62927;SDS011;51070;52.236;-0.892;2022-10-20T02:42:20;14.70;;;8.50;;
62927;SDS011;51070;52.236;-0.892;2022-10-20T02:44:45;23.50;;;8.80;;
62927;SDS011;51070;52.236;-0.892;2022-10-20T02:47:11;17.80;;;8.30;;
62927;SDS011;51070;52.236;-0.892;2022-10-20T02:49:36;17.50;;;8.10;;
62927;SDS011;51070;52.236;-0.892;2022-10-20T02:52:01;17.70;;;9.10;;
62927;SDS011;51070;52.236;-0.892;2022-10-20T02:54:27;23.50;;;10.60;;
62927;SDS011;51070;52.236;-0.892;2022-10-20T02:56:53;21.30;;;9.20;;
62927;SDS011;51070;52.236;-0.892;2022-10-20T02:59:19;22.10;;;10.10;;
62927;SDS011;51070;52.236;-0.892;2022-10-20T03:01:45;28.90;;;10.20;;
62927;SDS011;51070;52.236;-0.892;2022-10-20T03:04:10;18.60;;;9.30;;
62927;SDS011;51070;52.236;-0.892;2022-10-20T03:06:37;24.20;;;9.60;;
62927;SDS011;51070;52.236;-0.892;2022-10-20T03:09:02;26.30;;;8.70;;
62927;SDS011;51070;52.236;-0.892;2022-10-20T03:11:28;22.00;;;9.10;;
62927;SDS011;51070;52.236;-0.892;2022-10-20T03:13:54;18.90;;;10.90;;
62927;SDS011;51070;52.236;-0.892;2022-10-20T03:16:19;18.20;;;9.30;;
62927;SDS011;51070;52.236;-0.892;2022-10-20T03:18:44;21.10;;;10.40;;
62927;SDS011;51070;52.236;-0.892;2022-10-20T03:21:10;19.00;;;10.80;;
62927;SDS011;51070;52.236;-0.892;2022-10-20T03:23:36;20.90;;;10.00;;
62927;SDS011;51070;52.236;-0.892;2022-10-20T03:26:04;22.50;;;10.90;;
62927;SDS011;51070;52.236;-0.892;2022-10-20T03:28:31;21.00;;;10.50;;
62927;SDS011;51070;52.236;-0.892;2022-10-20T03:30:57;20.70;;;10.30;;
62927;SDS011;51070;52.236;-0.892;2022-10-20T03:33:23;20.00;;;10.60;;
62927;SDS011;51070;52.236;-0.892;2022-10-20T03:35:48;20.80;;;10.10;;
62927;SDS011;51070;52.236;-0.892;2022-10-20T03:38:14;23.30;;;11.10;;
62927;SDS011;51070;52.236;-0.892;2022-10-20T03:40:40;26.40;;;12.20;;
62927;SDS011;51070;52.236;-0.892;2022-10-20T03:43:05;23.20;;;12.70;;
62927;SDS011;51070;52.236;-0.892;2022-10-20T03:45:31;17.90;;;11.30;;
62927;SDS011;51070;52.236;-0.892;2022-10-20T03:47:56;20.80;;;12.40;;
62927;SDS011;51070;52.236;-0.892;2022-10-20T03:50:21;29.90;;;12.30;;
62927;SDS011;51070;52.236;-0.892;2022-10-20T03:52:47;31.40;;;12.80;;
62927;SDS011;51070;52.236;-0.892;2022-10-20T03:55:14;22.90;;;12.10;;
62927;SDS011;51070;52.236;-0.892;2022-10-20T03:57:40;26.60;;;13.40;;
62927;SDS011;51070;52.236;-0.892;2022-10-20T04:00:06;29.00;;;13.50;;
62927;SDS011;51070;52.236;-0.892;2022-10-20T04:05:00;26.10;;;12.50;;
62927;SDS011;51070;52.236;-0.892;2022-10-20T04:07:26;33.40;;;12.60;;
62927;SDS011;51070;52.236;-0.892;2022-10-20T04:09:51;26.20;;;13.60;;
62927;SDS011;51070;52.236;-0.892;2022-10-20T04:12:17;32.10;;;14.10;;
62927;SDS011;51070;52.236;-0.892;2022-10-20T04:14:42;24.10;;;12.90;;
62927;SDS011;51070;52.236;-0.892;2022-10-20T04:17:07;28.20;;;14.30;;
62927;SDS011;51070;52.236;-0.892;2022-10-20T04:19:33;27.80;;;13.20;;
62927;SDS011;51070;52.236;-0.892;2022-10-20T04:21:58;27.60;;;12.90;;
62927;SDS011;51070;52.236;-0.892;2022-10-20T04:24:24;25.90;;;14.40;;
62927;SDS011;51070;52.236;-0.892;2022-10-20T04:26:49;26.30;;;14.60;;
62927;SDS011;51070;52.236;-0.892;2022-10-20T04:29:15;33.10;;;14.80;;
62927;SDS011;51070;52.236;-0.892;2022-10-20T04:31:40;29.80;;;16.70;;
62927;SDS011;51070;52.236;-0.892;2022-10-20T04:34:06;25.80;;;14.20;;
62927;SDS011;51070;52.236;-0.892;2022-10-20T04:36:31;27.00;;;15.40;;
62927;SDS011;51070;52.236;-0.892;2022-10-20T04:38:56;34.60;;;15.10;;
62927;SDS011;51070;52.236;-0.892;2022-10-20T04:41:22;32.90;;;15.50;;
62927;SDS011;51070;52.236;-0.892;2022-10-20T04:43:50;31.70;;;16.10;;
62927;SDS011;51070;52.236;-0.892;2022-10-20T04:46:17;35.40;;;16.40;;
62927;SDS011;51070;52.236;-0.892;2022-10-20T04:48:43;27.30;;;15.60;;
62927;SDS011;51070;52.236;-0.892;2022-10-20T04:51:10;32.40;;;15.30;;
62927;SDS011;51070;52.236;-0.892;2022-10-20T04:53:37;35.40;;;16.60;;
62927;SDS011;51070;52.236;-0.892;2022-10-20T04:56:04;36.00;;;14.90;;
62927;SDS011;51070;52.236;-0.892;2022-10-20T04:58:31;32.20;;;16.10;;
62927;SDS011;51070;52.236;-0.892;2022-10-20T05:01:04;31.60;;;15.70;;
62927;SDS011;51070;52.236;-0.892;2022-10-20T05:03:32;29.10;;;15.10;;
62927;SDS011;51070;52.236;-0.892;2022-10-20T05:06:13;38.20;;;16.10;;
62927;SDS011;51070;52.236;-0.892;2022-10-20T05:08:39;34.40;;;16.20;;
62927;SDS011;51070;52.236;-0.892;2022-10-20T05:11:06;29.80;;;15.80;;
62927;SDS011;51070;52.236;-0.892;2022-10-20T05:13:32;31.80;;;17.30;;
62927;SDS011;51070;52.236;-0.892;2022-10-20T05:15:58;33.50;;;16.20;;
62927;SDS011;51070;52.236;-0.892;2022-10-20T05:18:24;36.00;;;16.70;;
62927;SDS011;51070;52.236;-0.892;2022-10-20T05:20:49;36.70;;;17.00;;
62927;SDS011;51070;52.236;-0.892;2022-10-20T05:23:15;36.70;;;18.20;;
62927;SDS011;51070;52.236;-0.892;2022-10-20T05:25:40;30.90;;;16.50;;
62927;SDS011;51070;52.236;-0.892;2022-10-20T05:28:06;34.10;;;16.30;;
62927;SDS011;51070;52.236;-0.892;2022-10-20T05:30:34;34.20;;;17.00;;
62927;SDS011;51070;52.236;-0.892;2022-10-20T05:33:01;33.50;;;17.10;;
62927;SDS011;51070;52.236;-0.892;2022-10-20T05:35:27;28.70;;;15.40;;
62927;SDS011;51070;52.236;-0.892;2022-10-20T05:37:53;33.30;;;16.20;;
62927;SDS011;51070;52.236;-0.892;2022-10-20T05:40:19;31.60;;;17.20;;
62927;SDS011;51070;52.236;-0.892;2022-10-20T05:42:45;35.00;;;17.50;;
62927;SDS011;51070;52.236;-0.892;2022-10-20T05:45:11;31.20;;;18.50;;
62927;SDS011;51070;52.236;-0.892;2022-10-20T05:47:36;34.70;;;17.80;;
62927;SDS011;51070;52.236;-0.892;2022-10-20T05:50:02;40.40;;;17.10;;
62927;SDS011;51070;52.236;-0.892;2022-10-20T05:52:31;32.70;;;17.60;;
62927;SDS011;51070;52.236;-0.892;2022-10-20T05:54:58;34.60;;;17.50;;
62927;SDS011;51070;52.236;-0.892;2022-10-20T05:57:24;30.70;;;18.00;;
62927;SDS011;51070;52.236;-0.892;2022-10-20T05:59:49;34.80;;;17.80;;
62927;SDS011;51070;52.236;-0.892;2022-10-20T06:02:15;31.30;;;17.10;;
62927;SDS011;51070;52.236;-0.892;2022-10-20T06:04:40;34.50;;;18.60;;
62927;SDS011;51070;52.236;-0.892;2022-10-20T06:07:06;40.50;;;18.60;;
62927;SDS011;51070;52.236;-0.892;2022-10-20T06:09:34;36.40;;;19.80;;
62927;SDS011;51070;52.236;-0.892;2022-10-20T06:12:00;31.60;;;17.50;;
62927;SDS011;51070;52.236;-0.892;2022-10-20T06:14:25;34.30;;;19.10;;
62927;SDS011;51070;52.236;-0.892;2022-10-20T06:16:51;27.60;;;16.90;;
62927;SDS011;51070;52.236;-0.892;2022-10-20T06:19:18;42.50;;;19.60;;
62927;SDS011;51070;52.236;-0.892;2022-10-20T06:21:44;32.90;;;18.10;;
62927;SDS011;51070;52.236;-0.892;2022-10-20T06:24:10;32.70;;;17.80;;
62927;SDS011;51070;52.236;-0.892;2022-10-20T06:26:36;38.60;;;18.40;;
62927;SDS011;51070;52.236;-0.892;2022-10-20T06:29:03;26.60;;;16.30;;
62927;SDS011;51070;52.236;-0.892;2022-10-20T06:31:35;30.30;;;17.60;;
62927;SDS011;51070;52.236;-0.892;2022-10-20T06:34:15;31.10;;;18.80;;
62927;SDS011;51070;52.236;-0.892;2022-10-20T06:36:45;29.40;;;17.30;;
62927;SDS011;51070;52.236;-0.892;2022-10-20T06:39:13;32.90;;;17.60;;
62927;SDS011;51070;52.236;-0.892;2022-10-20T06:41:42;34.30;;;18.00;;
62927;SDS011;51070;52.236;-0.892;2022-10-20T06:44:07;34.80;;;18.80;;
62927;SDS011;51070;52.236;-0.892;2022-10-20T06:46:33;30.50;;;18.00;;
62927;SDS011;51070;52.236;-0.892;2022-10-20T06:49:01;34.50;;;18.10;;
62927;SDS011;51070;52.236;-0.892;2022-10-20T06:53:55;30.80;;;18.90;;
62927;SDS011;51070;52.236;-0.892;2022-10-20T06:56:21;33.50;;;19.30;;
62927;SDS011;51070;52.236;-0.892;2022-10-20T06:58:49;34.40;;;19.20;;
62927;SDS011;51070;52.236;-0.892;2022-10-20T07:01:17;30.60;;;18.30;;
62927;SDS011;51070;52.236;-0.892;2022-10-20T07:03:43;33.00;;;18.70;;
62927;SDS011;51070;52.236;-0.892;2022-10-20T07:06:14;30.70;;;17.90;;
62927;SDS011;51070;52.236;-0.892;2022-10-20T07:08:42;35.40;;;20.40;;
62927;SDS011;51070;52.236;-0.892;2022-10-20T07:11:09;37.40;;;20.50;;
62927;SDS011;51070;52.236;-0.892;2022-10-20T07:13:37;35.30;;;18.80;;
62927;SDS011;51070;52.236;-0.892;2022-10-20T07:16:04;36.70;;;19.60;;
62927;SDS011;51070;52.236;-0.892;2022-10-20T07:18:32;36.60;;;19.50;;
62927;SDS011;51070;52.236;-0.892;2022-10-20T07:20:59;39.90;;;20.50;;
62927;SDS011;51070;52.236;-0.892;2022-10-20T07:23:27;35.40;;;19.80;;
62927;SDS011;51070;52.236;-0.892;2022-10-20T07:26:01;38.10;;;20.50;;
62927;SDS011;51070;52.236;-0.892;2022-10-20T07:28:28;33.40;;;17.70;;
62927;SDS011;51070;52.236;-0.892;2022-10-20T07:30:54;36.00;;;17.80;;
62927;SDS011;51070;52.236;-0.892;2022-10-20T07:33:19;35.10;;;18.70;;
62927;SDS011;51070;52.236;-0.892;2022-10-20T07:35:45;49.60;;;19.80;;
62927;SDS011;51070;52.236;-0.892;2022-10-20T07:38:11;35.40;;;18.20;;
62927;SDS011;51070;52.236;-0.892;2022-10-20T07:40:36;29.70;;;18.30;;
62927;SDS011;51070;52.236;-0.892;2022-10-20T07:43:02;38.00;;;20.00;;
62927;SDS011;51070;52.236;-0.892;2022-10-20T07:45:27;36.60;;;19.30;;
62927;SDS011;51070;52.236;-0.892;2022-10-20T07:47:52;29.50;;;18.30;;
62927;SDS011;51070;52.236;-0.892;2022-10-20T07:50:18;38.70;;;19.60;;
62927;SDS011;51070;52.236;-0.892;2022-10-20T07:52:43;31.60;;;20.50;;
62927;SDS011;51070;52.236;-0.892;2022-10-20T07:55:08;33.60;;;19.00;;
62927;SDS011;51070;52.236;-0.892;2022-10-20T07:57:34;35.00;;;19.50;;
62927;SDS011;51070;52.236;-0.892;2022-10-20T07:59:59;35.40;;;18.70;;
62927;SDS011;51070;52.236;-0.892;2022-10-20T08:02:25;39.10;;;18.80;;
62927;SDS011;51070;52.236;-0.892;2022-10-20T08:04:50;33.80;;;18.50;;
62927;SDS011;51070;52.236;-0.892;2022-10-20T08:07:16;36.00;;;21.00;;
62927;SDS011;51070;52.236;-0.892;2022-10-20T08:09:41;36.10;;;19.10;;
62927;SDS011;51070;52.236;-0.892;2022-10-20T08:14:35;39.20;;;19.70;;
62927;SDS011;51070;52.236;-0.892;2022-10-20T08:17:02;37.60;;;20.40;;
62927;SDS011;51070;52.236;-0.892;2022-10-20T08:19:28;34.50;;;21.00;;
62927;SDS011;51070;52.236;-0.892;2022-10-20T08:21:54;34.40;;;20.10;;
62927;SDS011;51070;52.236;-0.892;2022-10-20T08:24:19;34.40;;;19.80;;
62927;SDS011;51070;52.236;-0.892;2022-10-20T08:26:45;36.80;;;19.70;;
62927;SDS011;51070;52.236;-0.892;2022-10-20T08:29:10;38.90;;;21.20;;
62927;SDS011;51070;52.236;-0.892;2022-10-20T08:31:36;38.30;;;20.10;;
62927;SDS011;51070;52.236;-0.892;2022-10-20T08:34:03;37.10;;;21.20;;
62927;SDS011;51070;52.236;-0.892;2022-10-20T08:36:29;32.70;;;19.70;;
62927;SDS011;51070;52.236;-0.892;2022-10-20T08:38:54;38.70;;;18.80;;
62927;SDS011;51070;52.236;-0.892;2022-10-20T08:41:27;38.10;;;20.20;;
62927;SDS011;51070;52.236;-0.892;2022-10-20T08:43:58;34.50;;;19.90;;
62927;SDS011;51070;52.236;-0.892;2022-10-20T08:48:54;39.30;;;19.70;;
62927;SDS011;51070;52.236;-0.892;2022-10-20T08:51:22;33.70;;;19.90;;
62927;SDS011;51070;52.236;-0.892;2022-10-20T08:53:50;39.60;;;21.40;;
62927;SDS011;51070;52.236;-0.892;2022-10-20T08:56:21;43.20;;;19.70;;
62927;SDS011;51070;52.236;-0.892;2022-10-20T09:01:25;36.60;;;19.00;;
62927;SDS011;51070;52.236;-0.892;2022-10-20T09:03:56;39.40;;;21.00;;
62927;SDS011;51070;52.236;-0.892;2022-10-20T09:06:26;42.40;;;21.70;;
62927;SDS011;51070;52.236;-0.892;2022-10-20T09:08:52;41.40;;;22.10;;
62927;SDS011;51070;52.236;-0.892;2022-10-20T09:11:21;43.70;;;19.30;;
62927;SDS011;51070;52.236;-0.892;2022-10-20T09:13:49;40.10;;;21.20;;
62927;SDS011;51070;52.236;-0.892;2022-10-20T09:18:42;37.40;;;19.80;;
62927;SDS011;51070;52.236;-0.892;2022-10-20T09:21:12;31.30;;;17.50;;
62927;SDS011;51070;52.236;-0.892;2022-10-20T09:23:45;33.00;;;17.20;;
62927;SDS011;51070;52.236;-0.892;2022-10-20T09:26:32;36.80;;;20.80;;
62927;SDS011;51070;52.236;-0.892;2022-10-20T09:29:06;34.70;;;19.00;;
62927;SDS011;51070;52.236;-0.892;2022-10-20T09:31:34;41.80;;;21.40;;
62927;SDS011;51070;52.236;-0.892;2022-10-20T09:34:24;38.10;;;21.00;;
62927;SDS011;51070;52.236;-0.892;2022-10-20T09:39:27;40.00;;;19.40;;
62927;SDS011;51070;52.236;-0.892;2022-10-20T09:42:14;29.70;;;17.40;;
62927;SDS011;51070;52.236;-0.892;2022-10-20T09:44:52;32.60;;;19.00;;
62927;SDS011;51070;52.236;-0.892;2022-10-20T09:47:22;27.00;;;15.60;;
62927;SDS011;51070;52.236;-0.892;2022-10-20T09:49:56;31.10;;;17.40;;
62927;SDS011;51070;52.236;-0.892;2022-10-20T09:52:26;30.60;;;16.90;;
62927;SDS011;51070;52.236;-0.892;2022-10-20T09:54:59;27.60;;;17.20;;
62927;SDS011;51070;52.236;-0.892;2022-10-20T09:57:27;28.30;;;17.00;;
62927;SDS011;51070;52.236;-0.892;2022-10-20T09:59:54;27.00;;;15.30;;
62927;SDS011;51070;52.236;-0.892;2022-10-20T10:04:47;24.00;;;14.60;;
62927;SDS011;51070;52.236;-0.892;2022-10-20T10:09:59;21.40;;;13.90;;
62927;SDS011;51070;52.236;-0.892;2022-10-20T10:12:28;19.00;;;12.80;;
62927;SDS011;51070;52.236;-0.892;2022-10-20T10:14:58;19.90;;;12.70;;
62927;SDS011;51070;52.236;-0.892;2022-10-20T10:17:28;20.30;;;13.10;;
62927;SDS011;51070;52.236;-0.892;2022-10-20T10:19:58;19.50;;;13.00;;
62927;SDS011;51070;52.236;-0.892;2022-10-20T10:22:25;18.60;;;12.80;;
62927;SDS011;51070;52.236;-0.892;2022-10-20T10:24:51;18.00;;;12.00;;
62927;SDS011;51070;52.236;-0.892;2022-10-20T10:29:50;20.90;;;12.50;;
62927;SDS011;51070;52.236;-0.892;2022-10-20T10:32:23;16.30;;;11.50;;
62927;SDS011;51070;52.236;-0.892;2022-10-20T10:37:33;19.70;;;12.10;;
62927;SDS011;51070;52.236;-0.892;2022-10-20T10:40:02;20.70;;;11.70;;
62927;SDS011;51070;52.236;-0.892;2022-10-20T10:54:06;11.60;;;9.10;;
62927;SDS011;51070;52.236;-0.892;2022-10-20T10:56:51;14.30;;;8.80;;
62927;SDS011;51070;52.236;-0.892;2022-10-20T11:27:24;11.50;;;7.60;;
62927;SDS011;51070;52.236;-0.892;2022-10-20T11:38:37;11.60;;;8.10;;
62927;SDS011;51070;52.236;-0.892;2022-10-20T11:46:25;8.30;;;5.90;;
62927;SDS011;51070;52.236;-0.892;2022-10-20T11:48:54;11.60;;;6.10;;
62927;SDS011;51070;52.236;-0.892;2022-10-20T12:14:07;5.90;;;3.40;;
62927;SDS011;51070;52.236;-0.892;2022-10-20T12:19:25;13.50;;;3.50;;
62927;SDS011;51070;52.236;-0.892;2022-10-20T12:24:43;3.90;;;2.00;;
62927;SDS011;51070;52.236;-0.892;2022-10-20T12:27:27;3.50;;;2.40;;
62927;SDS011;51070;52.236;-0.892;2022-10-20T12:35:57;4.10;;;2.60;;
62927;SDS011;51070;52.236;-0.892;2022-10-20T12:38:24;4.20;;;1.90;;
62927;SDS011;51070;52.236;-0.892;2022-10-20T12:40:52;3.40;;;1.70;;
62927;SDS011;51070;52.236;-0.892;2022-10-20T12:43:26;3.80;;;2.10;;
62927;SDS011;51070;52.236;-0.892;2022-10-20T12:45:56;3.30;;;2.40;;
62927;SDS011;51070;52.236;-0.892;2022-10-20T12:48:27;4.50;;;1.60;;
62927;SDS011;51070;52.236;-0.892;2022-10-20T12:50:54;3.90;;;2.10;;
62927;SDS011;51070;52.236;-0.892;2022-10-20T12:53:27;4.70;;;3.00;;
62927;SDS011;51070;52.236;-0.892;2022-10-20T12:55:59;5.50;;;3.00;;
62927;SDS011;51070;52.236;-0.892;2022-10-20T12:58:33;6.00;;;3.70;;
62927;SDS011;51070;52.236;-0.892;2022-10-20T13:01:03;5.70;;;3.50;;
62927;SDS011;51070;52.236;-0.892;2022-10-20T13:03:52;7.70;;;4.40;;
62927;SDS011;51070;52.236;-0.892;2022-10-20T13:09:08;15.40;;;5.00;;
62927;SDS011;51070;52.236;-0.892;2022-10-20T13:11:42;8.80;;;3.40;;
62927;SDS011;51070;52.236;-0.892;2022-10-20T13:14:21;7.50;;;4.40;;
62927;SDS011;51070;52.236;-0.892;2022-10-20T13:20:13;5.60;;;3.70;;
62927;SDS011;51070;52.236;-0.892;2022-10-20T13:25:09;5.90;;;2.90;;
62927;SDS011;51070;52.236;-0.892;2022-10-20T13:27:45;5.30;;;3.40;;
62927;SDS011;51070;52.236;-0.892;2022-10-20T13:30:18;5.10;;;3.00;;
62927;SDS011;51070;52.236;-0.892;2022-10-20T13:32:51;7.00;;;3.40;;
62927;SDS011;51070;52.236;-0.892;2022-10-20T13:35:32;8.70;;;3.70;;
62927;SDS011;51070;52.236;-0.892;2022-10-20T13:38:24;6.90;;;3.60;;
62927;SDS011;51070;52.236;-0.892;2022-10-20T13:41:37;6.90;;;3.90;;
62927;SDS011;51070;52.236;-0.892;2022-10-20T13:46:42;7.50;;;3.90;;
62927;SDS011;51070;52.236;-0.892;2022-10-20T13:52:09;3.30;;;2.20;;
62927;SDS011;51070;52.236;-0.892;2022-10-20T13:54:44;4.00;;;2.40;;
62927;SDS011;51070;52.236;-0.892;2022-10-20T13:57:17;4.20;;;2.40;;
62927;SDS011;51070;52.236;-0.892;2022-10-20T13:59:58;4.40;;;2.40;;
62927;SDS011;51070;52.236;-0.892;2022-10-20T14:05:35;8.20;;;2.60;;
62927;SDS011;51070;52.236;-0.892;2022-10-20T14:08:06;5.10;;;2.80;;
62927;SDS011;51070;52.236;-0.892;2022-10-20T14:13:35;4.10;;;2.60;;
62927;SDS011;51070;52.236;-0.892;2022-10-20T14:16:05;6.70;;;2.20;;
62927;SDS011;51070;52.236;-0.892;2022-10-20T14:18:40;5.80;;;2.80;;
62927;SDS011;51070;52.236;-0.892;2022-10-20T14:21:12;3.60;;;1.90;;
62927;SDS011;51070;52.236;-0.892;2022-10-20T14:23:40;4.00;;;2.10;;
62927;SDS011;51070;52.236;-0.892;2022-10-20T14:26:11;4.50;;;2.40;;
62927;SDS011;51070;52.236;-0.892;2022-10-20T14:28:39;4.50;;;2.30;;
62927;SDS011;51070;52.236;-0.892;2022-10-20T14:31:08;4.90;;;2.50;;
62927;SDS011;51070;52.236;-0.892;2022-10-20T14:33:39;4.40;;;2.50;;
62927;SDS011;51070;52.236;-0.892;2022-10-20T14:36:11;3.90;;;2.10;;
62927;SDS011;51070;52.236;-0.892;2022-10-20T14:38:47;4.60;;;2.60;;
62927;SDS011;51070;52.236;-0.892;2022-10-20T14:41:22;5.00;;;2.30;;
62927;SDS011;51070;52.236;-0.892;2022-10-20T14:43:49;8.30;;;2.10;;
62927;SDS011;51070;52.236;-0.892;2022-10-20T14:46:32;4.20;;;2.10;;
62927;SDS011;51070;52.236;-0.892;2022-10-20T14:49:00;4.10;;;2.00;;
62927;SDS011;51070;52.236;-0.892;2022-10-20T14:51:29;5.10;;;2.40;;
62927;SDS011;51070;52.236;-0.892;2022-10-20T14:56:55;4.40;;;2.00;;
62927;SDS011;51070;52.236;-0.892;2022-10-20T14:59:23;4.10;;;2.20;;
62927;SDS011;51070;52.236;-0.892;2022-10-20T15:02:10;5.10;;;3.00;;
62927;SDS011;51070;52.236;-0.892;2022-10-20T15:04:43;4.60;;;2.40;;
62927;SDS011;51070;52.236;-0.892;2022-10-20T15:07:14;4.80;;;2.40;;
62927;SDS011;51070;52.236;-0.892;2022-10-20T15:09:49;4.10;;;2.30;;
62927;SDS011;51070;52.236;-0.892;2022-10-20T15:12:19;3.70;;;2.30;;
62927;SDS011;51070;52.236;-0.892;2022-10-20T15:15:15;4.90;;;3.10;;
62927;SDS011;51070;52.236;-0.892;2022-10-20T15:20:41;4.40;;;2.20;;
62927;SDS011;51070;52.236;-0.892;2022-10-20T15:23:08;3.60;;;1.80;;
62927;SDS011;51070;52.236;-0.892;2022-10-20T15:30:40;5.70;;;2.20;;
62927;SDS011;51070;52.236;-0.892;2022-10-20T15:33:07;3.80;;;1.70;;
62927;SDS011;51070;52.236;-0.892;2022-10-20T15:35:33;2.70;;;1.50;;
62927;SDS011;51070;52.236;-0.892;2022-10-20T15:37:59;4.60;;;1.80;;
62927;SDS011;51070;52.236;-0.892;2022-10-20T15:40:24;4.20;;;1.90;;
62927;SDS011;51070;52.236;-0.892;2022-10-20T15:42:50;5.60;;;2.00;;
62927;SDS011;51070;52.236;-0.892;2022-10-20T15:45:16;2.60;;;1.40;;
62927;SDS011;51070;52.236;-0.892;2022-10-20T15:47:44;2.90;;;1.90;;
62927;SDS011;51070;52.236;-0.892;2022-10-20T15:50:09;5.40;;;1.50;;
62927;SDS011;51070;52.236;-0.892;2022-10-20T15:52:35;4.30;;;1.60;;
62927;SDS011;51070;52.236;-0.892;2022-10-20T15:55:09;2.70;;;1.50;;
62927;SDS011;51070;52.236;-0.892;2022-10-20T15:57:47;3.70;;;1.60;;
62927;SDS011;51070;52.236;-0.892;2022-10-20T16:00:14;3.40;;;1.10;;
62927;SDS011;51070;52.236;-0.892;2022-10-20T16:02:39;5.30;;;1.50;;
62927;SDS011;51070;52.236;-0.892;2022-10-20T16:05:05;0.80;;;0.70;;
62927;SDS011;51070;52.236;-0.892;2022-10-20T16:07:31;1.90;;;0.90;;
62927;SDS011;51070;52.236;-0.892;2022-10-20T16:09:57;0.70;;;0.70;;
62927;SDS011;51070;52.236;-0.892;2022-10-20T16:12:22;1.20;;;0.80;;
62927;SDS011;51070;52.236;-0.892;2022-10-20T16:14:47;1.10;;;1.00;;
62927;SDS011;51070;52.236;-0.892;2022-10-20T16:17:13;8.10;;;1.40;;
62927;SDS011;51070;52.236;-0.892;2022-10-20T16:19:38;1.10;;;0.70;;
62927;SDS011;51070;52.236;-0.892;2022-10-20T16:22:04;1.10;;;0.70;;
62927;SDS011;51070;52.236;-0.892;2022-10-20T16:24:29;2.30;;;0.80;;
62927;SDS011;51070;52.236;-0.892;2022-10-20T16:26:54;2.50;;;0.80;;
62927;SDS011;51070;52.236;-0.892;2022-10-20T16:29:20;1.60;;;0.50;;
62927;SDS011;51070;52.236;-0.892;2022-10-20T16:31:46;1.60;;;0.70;;
62927;SDS011;51070;52.236;-0.892;2022-10-20T16:34:12;1.90;;;0.80;;
62927;SDS011;51070;52.236;-0.892;2022-10-20T16:36:37;1.00;;;0.80;;
62927;SDS011;51070;52.236;-0.892;2022-10-20T16:39:03;1.40;;;0.80;;
62927;SDS011;51070;52.236;-0.892;2022-10-20T16:41:28;1.60;;;1.00;;
62927;SDS011;51070;52.236;-0.892;2022-10-20T16:43:54;1.90;;;1.20;;
62927;SDS011;51070;52.236;-0.892;2022-10-20T16:46:19;1.80;;;0.90;;
62927;SDS011;51070;52.236;-0.892;2022-10-20T16:48:44;1.30;;;0.90;;
62927;SDS011;51070;52.236;-0.892;2022-10-20T16:51:10;1.60;;;1.00;;
62927;SDS011;51070;52.236;-0.892;2022-10-20T16:53:37;1.60;;;0.90;;
62927;SDS011;51070;52.236;-0.892;2022-10-20T16:56:03;2.40;;;1.10;;
62927;SDS011;51070;52.236;-0.892;2022-10-20T16:58:30;2.40;;;1.10;;
62927;SDS011;51070;52.236;-0.892;2022-10-20T17:01:13;1.20;;;0.90;;
62927;SDS011;51070;52.236;-0.892;2022-10-20T17:03:44;3.70;;;1.20;;
62927;SDS011;51070;52.236;-0.892;2022-10-20T17:06:12;3.00;;;1.20;;
62927;SDS011;51070;52.236;-0.892;2022-10-20T17:08:39;4.70;;;1.20;;
62927;SDS011;51070;52.236;-0.892;2022-10-20T17:13:31;3.00;;;1.20;;
62927;SDS011;51070;52.236;-0.892;2022-10-20T17:16:04;1.30;;;0.90;;
62927;SDS011;51070;52.236;-0.892;2022-10-20T17:18:31;3.60;;;1.20;;
62927;SDS011;51070;52.236;-0.892;2022-10-20T17:20:57;2.90;;;1.20;;
62927;SDS011;51070;52.236;-0.892;2022-10-20T17:23:23;3.40;;;1.50;;